Time;durP1;ratioP1;P1;durP2;ratioP2;P2;SDS_P1;SDS_P2;PMS_P1;PMS_P2;Temp;Humidity;BMP_temperature;BMP_pressure;BME280_temperature;BME280_humidity;BME280_pressure;Samples;Min_cycle;Max_cycle;Signal;HPM_P1;HPM_P2
2022/05/25 00:00:12;;;;;;;8.27;6.88;;;9.70;99.90;;;;;;5042961;28;20387;-74
2022/05/25 00:02:38;;;;;;;7.18;6.57;;;9.70;99.90;;;;;;5045161;28;20437;-74
2022/05/25 00:05:06;;;;;;;9.38;7.38;;;9.70;99.90;;;;;;5041058;28;20040;-74
2022/05/25 00:07:32;;;;;;;6.53;6.03;;;9.60;99.90;;;;;;5054032;22;20029;-76
2022/05/25 00:09:57;;;;;;;8.40;7.50;;;9.60;99.90;;;;;;5041499;28;20450;-75
2022/05/25 00:12:23;;;;;;;8.00;7.20;;;9.60;99.90;;;;;;5047152;28;20439;-76
2022/05/25 00:14:49;;;;;;;7.78;7.07;;;9.60;99.90;;;;;;5048748;28;20037;-74
2022/05/25 00:17:15;;;;;;;7.72;6.90;;;9.50;99.90;;;;;;5058932;28;20041;-75
2022/05/25 00:19:59;;;;;;;7.65;6.85;;;9.50;99.90;;;;;;5048345;28;20051;-75
2022/05/25 00:22:41;;;;;;;9.30;6.80;;;9.50;99.90;;;;;;5064849;28;20041;-75
2022/05/25 00:25:08;;;;;;;;;;;9.50;99.90;;;;;;5060604;28;20601;-75
2022/05/25 00:27:34;;;;;;;7.03;6.45;;;9.50;99.90;;;;;;5055578;28;19979;-75
2022/05/25 00:30:00;;;;;;;7.10;6.50;;;9.50;99.90;;;;;;5062709;28;20050;-75
2022/05/25 00:32:25;;;;;;;7.85;7.10;;;9.50;99.90;;;;;;5044821;28;20047;-75
2022/05/25 00:34:51;;;;;;;7.75;6.97;;;9.40;99.90;;;;;;5062967;28;20032;-74
2022/05/25 00:37:16;;;;;;;7.95;7.18;;;9.40;99.90;;;;;;5061804;28;20040;-75
2022/05/25 00:39:42;;;;;;;7.35;6.75;;;9.40;99.90;;;;;;5065451;28;20041;-74
2022/05/25 00:42:07;;;;;;;7.90;7.15;;;9.40;99.90;;;;;;5050614;28;20039;-74
2022/05/25 00:44:33;;;;;;;7.55;6.85;;;9.30;99.90;;;;;;5067613;28;20037;-75
2022/05/25 00:47:00;;;;;;;8.52;7.72;;;9.30;99.90;;;;;;5067524;28;20114;-75
2022/05/25 00:49:32;;;;;;;7.70;7.05;;;9.30;99.90;;;;;;5059331;28;20045;-74
2022/05/25 00:52:10;;;;;;;8.10;7.32;;;9.30;99.90;;;;;;5058993;28;20044;-75
2022/05/25 00:54:43;;;;;;;7.80;7.10;;;9.30;99.90;;;;;;5038050;28;20429;-74
2022/05/25 00:57:13;;;;;;;7.57;6.88;;;9.20;99.90;;;;;;5064593;28;20106;-75
2022/05/25 01:00:03;;;;;;;8.38;7.57;;;9.20;99.90;;;;;;5067106;28;20039;-76
2022/05/25 01:02:31;;;;;;;7.57;6.88;;;9.20;99.90;;;;;;5066873;28;20165;-75
2022/05/25 01:04:57;;;;;;;7.68;6.95;;;9.20;99.90;;;;;;5066706;28;20028;-75
2022/05/25 01:07:44;;;;;;;7.47;6.78;;;9.20;99.90;;;;;;5053614;28;20501;-75
2022/05/25 01:10:44;;;;;;;7.85;7.25;;;9.10;99.90;;;;;;5070504;28;20063;-75
2022/05/25 01:13:25;;;;;;;10.63;8.05;;;9.10;99.90;;;;;;5057985;28;20406;-76
2022/05/25 01:16:21;;;;;;;8.45;7.63;;;9.10;99.90;;;;;;5068121;28;20045;-76
2022/05/25 01:19:10;;;;;;;9.35;8.52;;;9.10;99.90;;;;;;5067212;28;20044;-74
2022/05/25 01:21:57;;;;;;;9.35;8.52;;;9.10;99.90;;;;;;5069062;28;20043;-75
2022/05/25 01:24:52;;;;;;;9.43;8.52;;;9.00;99.90;;;;;;5084930;28;20481;-75
2022/05/25 01:27:30;;;;;;;9.90;8.85;;;9.00;99.90;;;;;;5039878;28;20048;-75
2022/05/25 01:29:55;;;;;;;9.40;8.60;;;9.00;99.90;;;;;;5065806;28;20043;-75
2022/05/25 01:32:31;;;;;;;9.45;8.65;;;9.00;99.90;;;;;;5059171;28;20040;-75
2022/05/25 01:35:15;;;;;;;10.13;8.80;;;9.00;99.90;;;;;;5050683;28;20482;-75
2022/05/25 01:37:49;;;;;;;10.05;9.07;;;9.00;99.90;;;;;;5069309;28;20032;-74
2022/05/25 01:40:24;;;;;;;10.00;9.18;;;8.90;99.90;;;;;;5070007;28;20114;-75
2022/05/25 01:42:59;;;;;;;11.45;10.05;;;8.90;99.90;;;;;;5049128;28;20055;-75
2022/05/25 01:45:30;;;;;;;10.30;9.25;;;8.90;99.90;;;;;;5064421;28;20072;-76
2022/05/25 01:48:02;;;;;;;10.07;9.18;;;8.90;99.90;;;;;;5067280;28;20072;-76
2022/05/25 01:50:39;;;;;;;10.35;9.35;;;8.90;99.90;;;;;;5086220;28;20120;-76
2022/05/25 01:53:07;;;;;;;10.55;9.55;;;8.90;99.90;;;;;;5065446;28;20655;-76
2022/05/25 01:55:43;;;;;;;11.18;10.18;;;8.90;99.90;;;;;;5070636;28;20143;-75
2022/05/25 01:58:13;;;;;;;11.00;9.90;;;8.90;99.90;;;;;;5068473;28;20048;-75
2022/05/25 02:00:42;;;;;;;11.32;10.27;;;8.80;99.90;;;;;;5039003;28;20045;-74
2022/05/25 02:06:32;;;;;;;10.40;9.45;;;8.80;99.90;;;;;;5029236;28;20060;-75
2022/05/25 02:09:07;;;;;;;;;;;8.80;99.90;;;;;;5047874;28;20052;-75
2022/05/25 02:11:45;;;;;;;11.18;10.07;;;8.80;99.90;;;;;;5067773;28;20369;-75
2022/05/25 02:14:38;;;;;;;11.13;9.93;;;8.80;99.90;;;;;;5067294;28;20043;-75
2022/05/25 02:17:31;;;;;;;17.60;10.77;;;8.80;99.90;;;;;;5064357;28;20071;-75
2022/05/25 02:20:00;;;;;;;11.13;10.02;;;8.70;99.90;;;;;;5069701;28;20420;-75
2022/05/25 02:22:35;;;;;;;12.32;11.13;;;8.70;99.90;;;;;;5066413;28;20041;-75
2022/05/25 02:25:21;;;;;;;12.10;11.10;;;8.70;99.90;;;;;;5062423;28;20037;-75
2022/05/25 02:28:10;;;;;;;12.05;10.95;;;8.70;99.90;;;;;;5077609;28;20048;-75
2022/05/25 02:30:39;;;;;;;11.55;10.48;;;8.70;99.90;;;;;;5059246;28;20056;-72
2022/05/25 02:33:15;;;;;;;12.65;11.38;;;8.70;99.90;;;;;;5066379;28;20040;-73
2022/05/25 02:35:44;;;;;;;12.65;11.35;;;8.70;99.90;;;;;;5066247;28;20516;-74
2022/05/25 02:38:10;;;;;;;12.43;11.27;;;8.70;99.90;;;;;;5067281;28;20036;-73
2022/05/25 02:40:38;;;;;;;13.38;11.98;;;8.70;99.90;;;;;;5065347;28;20444;-74
2022/05/25 02:43:06;;;;;;;11.05;9.98;;;8.70;99.90;;;;;;5059495;28;20044;-74
2022/05/25 02:45:31;;;;;;;12.20;11.05;;;8.70;99.90;;;;;;5067678;28;20048;-74
2022/05/25 02:47:57;;;;;;;13.50;12.10;;;8.60;99.90;;;;;;5064873;28;20055;-74
2022/05/25 02:50:23;;;;;;;12.80;11.60;;;8.60;99.90;;;;;;5057082;28;20032;-73
2022/05/25 02:52:48;;;;;;;12.07;10.98;;;8.60;99.90;;;;;;5067812;28;20127;-73
2022/05/25 02:55:14;;;;;;;12.57;11.02;;;8.60;99.90;;;;;;5063862;28;20041;-73
2022/05/25 02:57:40;;;;;;;12.50;11.40;;;8.60;99.90;;;;;;5051978;28;20419;-73
2022/05/25 03:00:08;;;;;;;11.43;10.43;;;8.60;99.90;;;;;;5053275;28;20488;-73
2022/05/25 03:02:35;;;;;;;12.88;11.45;;;8.60;99.90;;;;;;5067029;28;20043;-73
2022/05/25 03:05:00;;;;;;;12.43;11.23;;;8.60;99.90;;;;;;5064905;28;20049;-73
2022/05/25 03:07:26;;;;;;;13.55;12.20;;;8.60;99.90;;;;;;5048619;28;20041;-73
2022/05/25 03:09:51;;;;;;;12.35;11.25;;;8.60;99.90;;;;;;5061167;28;20076;-73
2022/05/25 03:12:17;;;;;;;13.35;12.15;;;8.50;99.90;;;;;;5067555;28;20044;-73
2022/05/25 03:14:43;;;;;;;14.23;12.88;;;8.50;99.90;;;;;;5053399;28;20506;-73
2022/05/25 03:17:14;;;;;;;13.27;11.98;;;8.60;99.90;;;;;;5066894;28;20131;-73
2022/05/25 03:19:49;;;;;;;13.95;12.40;;;8.50;99.90;;;;;;5050288;28;20501;-73
2022/05/25 03:22:14;;;;;;;14.80;13.40;;;8.50;99.90;;;;;;5049036;28;20473;-73
2022/05/25 03:24:40;;;;;;;12.68;11.40;;;8.50;99.90;;;;;;5062609;28;20045;-73
2022/05/25 03:27:05;;;;;;;13.80;12.40;;;8.60;99.90;;;;;;5069052;28;20040;-73
2022/05/25 03:29:31;;;;;;;14.30;12.90;;;8.50;99.90;;;;;;5070060;28;20413;-73
2022/05/25 03:31:57;;;;;;;14.35;12.95;;;8.60;99.90;;;;;;5068096;28;20032;-73
2022/05/25 03:34:23;;;;;;;14.13;12.52;;;8.70;99.90;;;;;;5058805;28;20888;-73
2022/05/25 03:36:48;;;;;;;14.65;13.25;;;8.60;99.90;;;;;;5065834;28;20048;-73
2022/05/25 03:39:14;;;;;;;16.50;14.60;;;8.60;99.90;;;;;;5058955;28;20036;-74
2022/05/25 03:41:40;;;;;;;14.80;13.30;;;8.60;99.90;;;;;;5060916;28;20083;-73
2022/05/25 03:44:06;;;;;;;16.50;14.63;;;8.60;99.90;;;;;;5043999;28;20047;-73
2022/05/25 03:46:32;;;;;;;15.15;13.63;;;8.60;99.90;;;;;;5055708;28;20398;-73
2022/05/25 03:48:58;;;;;;;16.23;14.63;;;8.60;99.90;;;;;;5064529;28;20037;-73
2022/05/25 03:51:23;;;;;;;15.40;13.93;;;8.60;99.90;;;;;;5044474;28;20025;-74
2022/05/25 03:53:49;;;;;;;17.55;14.38;;;8.70;99.90;;;;;;5055550;28;20029;-72
2022/05/25 03:56:16;;;;;;;15.95;14.25;;;8.70;99.90;;;;;;5054380;28;20044;-72
2022/05/25 03:58:43;;;;;;;14.70;13.20;;;8.70;99.90;;;;;;5040586;28;20048;-73
2022/05/25 04:01:09;;;;;;;15.15;13.63;;;8.70;99.90;;;;;;5059114;28;20474;-73
2022/05/25 04:03:34;;;;;;;14.80;13.35;;;8.70;99.90;;;;;;5059444;28;20060;-74
2022/05/25 04:06:00;;;;;;;15.82;14.23;;;8.80;99.90;;;;;;5059558;28;20040;-73
2022/05/25 04:08:25;;;;;;;16.33;14.10;;;8.80;99.90;;;;;;5058157;28;20524;-73
2022/05/25 04:10:51;;;;;;;15.20;13.60;;;8.90;99.90;;;;;;5061026;28;20053;-73
2022/05/25 04:13:17;;;;;;;15.52;14.02;;;8.90;99.90;;;;;;5066418;28;20059;-73
2022/05/25 04:15:42;;;;;;;16.05;14.55;;;8.90;99.90;;;;;;5066131;28;20044;-73
2022/05/25 04:18:08;;;;;;;15.75;14.15;;;9.00;99.90;;;;;;5051103;28;20125;-73
2022/05/25 04:20:34;;;;;;;15.88;14.30;;;9.00;99.90;;;;;;5065836;28;20036;-72
2022/05/25 04:23:00;;;;;;;16.35;14.70;;;9.10;99.90;;;;;;5059009;28;20047;-73
2022/05/25 04:25:26;;;;;;;18.25;16.35;;;9.10;99.90;;;;;;5060945;28;20037;-73
2022/05/25 04:27:53;;;;;;;17.50;14.70;;;9.20;99.90;;;;;;5048488;28;20036;-73
2022/05/25 04:30:24;;;;;;;15.52;14.05;;;9.20;99.90;;;;;;5063720;28;20036;-73
2022/05/25 04:32:49;;;;;;;17.08;15.23;;;9.30;99.90;;;;;;5065605;28;20043;-73
2022/05/25 04:35:16;;;;;;;17.40;14.98;;;9.30;99.90;;;;;;5067730;28;20045;-73
2022/05/25 04:37:54;;;;;;;15.57;13.95;;;9.40;99.90;;;;;;5052940;28;20113;-73
2022/05/25 04:40:23;;;;;;;16.25;14.23;;;9.50;99.90;;;;;;5060348;28;20048;-74
2022/05/25 04:42:50;;;;;;;16.02;14.43;;;9.50;99.90;;;;;;5065612;28;20051;-74
2022/05/25 04:45:16;;;;;;;15.73;14.13;;;9.60;99.90;;;;;;5072437;28;20059;-74
2022/05/25 04:47:42;;;;;;;19.10;15.45;;;9.70;99.90;;;;;;5072230;28;20033;-74
2022/05/25 04:50:10;;;;;;;15.30;13.80;;;9.80;99.90;;;;;;5071488;28;20082;-72
2022/05/25 04:52:36;;;;;;;16.38;14.68;;;9.80;99.90;;;;;;5054584;28;20037;-73
2022/05/25 04:55:07;;;;;;;16.63;14.93;;;9.90;99.90;;;;;;5070523;28;20052;-73
2022/05/25 04:57:33;;;;;;;16.33;14.65;;;10.00;99.90;;;;;;5065512;28;20037;-73
2022/05/25 05:00:01;;;;;;;15.02;13.57;;;10.10;99.90;;;;;;5048542;28;20049;-74
2022/05/25 05:02:29;;;;;;;14.60;13.13;;;10.20;99.90;;;;;;5052506;28;20036;-74
2022/05/25 05:04:54;;;;;;;16.08;14.30;;;10.30;99.90;;;;;;5069917;28;20119;-72
2022/05/25 05:07:32;;;;;;;13.40;12.10;;;10.40;99.90;;;;;;5069502;28;20127;-73
2022/05/25 05:10:00;;;;;;;14.98;13.43;;;10.50;99.90;;;;;;5070295;28;20098;-75
2022/05/25 05:12:29;;;;;;;13.93;12.60;;;10.60;99.90;;;;;;5067400;28;20433;-74
2022/05/25 05:14:55;;;;;;;12.73;11.57;;;10.60;99.90;;;;;;5067286;28;20119;-72
2022/05/25 05:17:21;;;;;;;15.13;13.10;;;10.70;99.90;;;;;;5045550;28;20767;-73
2022/05/25 05:19:47;;;;;;;15.20;13.60;;;10.80;99.90;;;;;;5072448;28;20048;-74
2022/05/25 05:22:12;;;;;;;13.82;12.40;;;10.90;99.90;;;;;;5068777;28;20042;-73
2022/05/25 05:24:38;;;;;;;14.20;12.02;;;11.00;99.90;;;;;;5069082;28;20363;-73
2022/05/25 05:27:06;;;;;;;13.13;11.82;;;11.10;99.90;;;;;;5072486;28;20414;-73
2022/05/25 05:29:32;;;;;;;15.40;12.57;;;11.20;99.90;;;;;;5056031;28;20145;-73
2022/05/25 05:31:58;;;;;;;13.13;11.75;;;11.30;99.90;;;;;;5064358;28;20806;-74
2022/05/25 05:34:28;;;;;;;12.95;11.40;;;11.40;99.90;;;;;;5061347;28;20040;-74
2022/05/25 05:37:13;;;;;;;12.82;11.50;;;11.50;99.90;;;;;;5072646;28;20051;-74
2022/05/25 05:39:44;;;;;;;11.38;10.27;;;11.70;99.90;;;;;;5070314;28;20043;-74
2022/05/25 05:42:13;;;;;;;13.30;11.50;;;11.80;99.90;;;;;;5055014;28;20466;-73
2022/05/25 05:44:43;;;;;;;12.23;10.95;;;11.90;99.90;;;;;;5072491;28;20037;-74
2022/05/25 05:47:13;;;;;;;13.30;11.75;;;12.10;99.90;;;;;;5072377;28;20425;-73
2022/05/25 05:49:39;;;;;;;11.50;10.10;;;12.40;99.90;;;;;;5045921;28;20045;-73
2022/05/25 05:52:05;;;;;;;9.82;8.82;;;13.80;99.90;;;;;;5063113;28;20032;-72
2022/05/25 05:54:32;;;;;;;10.95;9.07;;;15.60;99.90;;;;;;5084864;28;20113;-73
2022/05/25 05:56:58;;;;;;;11.27;9.63;;;16.80;99.90;;;;;;5058057;28;20079;-73
2022/05/25 05:59:24;;;;;;;9.77;8.45;;;18.00;99.90;;;;;;5065095;28;20052;-73
2022/05/25 06:01:49;;;;;;;10.73;8.25;;;19.00;99.90;;;;;;5057342;28;20033;-73
2022/05/25 06:04:15;;;;;;;8.95;7.93;;;19.90;99.90;;;;;;5046433;28;20174;-73
2022/05/25 06:06:40;;;;;;;12.18;8.93;;;20.40;99.60;;;;;;5052213;28;20135;-73
2022/05/25 06:09:06;;;;;;;8.43;7.63;;;21.20;99.10;;;;;;5064875;28;20059;-73
2022/05/25 06:11:32;;;;;;;10.13;8.00;;;21.70;98.40;;;;;;5062895;28;20165;-73
2022/05/25 06:13:58;;;;;;;7.95;7.22;;;22.60;97.50;;;;;;5050210;28;20040;-74
2022/05/25 06:19:26;;;;;;;8.45;7.63;;;23.80;95.10;;;;;;5069230;28;20132;-73
2022/05/25 06:22:08;;;;;;;7.95;7.15;;;24.20;93.20;;;;;;5048246;28;20048;-73
2022/05/25 06:24:36;;;;;;;;;;;24.50;90.40;;;;;;5071003;28;20048;-73
2022/05/25 06:27:01;;;;;;;8.18;7.47;;;24.40;87.00;;;;;;5068377;28;19920;-74
2022/05/25 06:29:27;;;;;;;8.32;6.68;;;24.70;87.90;;;;;;5067929;28;20044;-74
2022/05/25 06:31:52;;;;;;;9.45;7.03;;;24.90;86.80;;;;;;5056146;28;20512;-74
2022/05/25 06:34:18;;;;;;;8.10;7.30;;;24.90;83.00;;;;;;5059127;28;20343;-73
2022/05/25 06:36:47;;;;;;;7.55;6.30;;;25.00;83.60;;;;;;5051709;28;20029;-73
2022/05/25 06:39:13;;;;;;;7.20;6.28;;;25.00;82.20;;;;;;5069015;28;20032;-73
2022/05/25 06:41:38;;;;;;;7.03;5.85;;;25.30;81.50;;;;;;5060739;28;20058;-73
2022/05/25 06:44:04;;;;;;;6.63;6.03;;;25.20;81.60;;;;;;5068727;28;20052;-74
2022/05/25 06:46:30;;;;;;;5.97;5.38;;;25.30;79.70;;;;;;5067506;28;20314;-74
2022/05/25 06:48:58;;;;;;;6.43;5.57;;;25.30;79.40;;;;;;5068254;28;20044;-73
2022/05/25 06:51:34;;;;;;;6.95;4.90;;;25.40;79.60;;;;;;5069214;28;20037;-74
2022/05/25 06:54:00;;;;;;;6.65;5.70;;;25.30;76.70;;;;;;5068398;28;20465;-74
2022/05/25 06:56:26;;;;;;;5.95;4.60;;;25.50;77.60;;;;;;5068219;28;20140;-73
2022/05/25 06:58:53;;;;;;;7.20;5.13;;;25.60;75.10;;;;;;5056499;28;20106;-73
2022/05/25 07:01:22;;;;;;;7.32;5.20;;;25.70;76.30;;;;;;5057751;28;20048;-73
2022/05/25 07:03:49;;;;;;;5.93;5.10;;;25.60;76.00;;;;;;5059516;28;20041;-73
2022/05/25 07:06:17;;;;;;;6.28;4.93;;;25.90;75.70;;;;;;5040464;28;20063;-73
2022/05/25 07:08:44;;;;;;;6.53;5.13;;;26.40;75.80;;;;;;5059018;28;20528;-73
2022/05/25 07:11:11;;;;;;;6.53;4.90;;;26.80;73.00;;;;;;5049703;28;20612;-75
2022/05/25 07:13:37;;;;;;;5.93;4.90;;;26.60;71.20;;;;;;5061535;28;20032;-74
2022/05/25 07:16:06;;;;;;;7.15;5.28;;;26.90;71.40;;;;;;5058396;28;20044;-74
2022/05/25 07:18:32;;;;;;;5.65;5.07;;;26.90;71.10;;;;;;5069234;28;20053;-73
2022/05/25 07:21:09;;;;;;;6.50;5.10;;;26.70;71.10;;;;;;5070229;28;20175;-74
2022/05/25 07:23:36;;;;;;;5.05;4.55;;;26.90;69.90;;;;;;5071331;28;20033;-74
2022/05/25 07:26:02;;;;;;;6.10;4.57;;;26.90;68.00;;;;;;5061859;28;20040;-74
2022/05/25 07:28:28;;;;;;;4.95;4.50;;;26.40;67.00;;;;;;5068773;28;20044;-73
2022/05/25 07:31:01;;;;;;;6.30;4.85;;;26.30;68.80;;;;;;5066369;28;20025;-73
2022/05/25 07:33:27;;;;;;;6.13;4.50;;;26.50;66.80;;;;;;5070402;28;20040;-74
2022/05/25 07:35:53;;;;;;;6.15;4.82;;;25.80;69.50;;;;;;5053548;28;20098;-74
2022/05/25 07:38:18;;;;;;;5.82;4.55;;;25.00;68.70;;;;;;5070392;28;20359;-74
2022/05/25 07:40:46;;;;;;;5.80;4.53;;;25.20;70.40;;;;;;5045289;28;20029;-74
2022/05/25 07:43:17;;;;;;;6.40;4.75;;;25.50;69.50;;;;;;5054493;28;20041;-74
2022/05/25 07:45:45;;;;;;;6.85;4.60;;;25.50;69.30;;;;;;5069677;28;20053;-74
2022/05/25 07:48:10;;;;;;;5.40;4.32;;;26.00;69.70;;;;;;5064458;28;20051;-74
2022/05/25 07:50:36;;;;;;;7.28;4.70;;;26.20;69.30;;;;;;5069816;28;20032;-74
2022/05/25 07:53:03;;;;;;;5.78;3.92;;;25.90;66.90;;;;;;5086132;28;20040;-74
2022/05/25 07:55:29;;;;;;;4.78;3.58;;;25.70;66.80;;;;;;5084628;28;20036;-73
2022/05/25 07:57:55;;;;;;;3.85;3.50;;;25.70;67.10;;;;;;5053441;28;20052;-73
2022/05/25 08:00:24;;;;;;;4.03;3.55;;;25.50;66.40;;;;;;5069952;28;20055;-74
2022/05/25 08:05:44;;;;;;;4.53;3.70;;;24.60;66.80;;;;;;5063876;28;20052;-74
2022/05/25 08:08:17;;;;;;;3.40;3.20;;;23.60;69.10;;;;;;5057695;28;20059;-73
2022/05/25 08:10:47;;;;;;;5.95;4.03;;;22.90;72.40;;;;;;5055185;28;20075;-73
2022/05/25 08:13:17;;;;;;;6.93;3.90;;;22.20;75.40;;;;;;5043469;28;20025;-73
2022/05/25 08:15:43;;;;;;;4.13;3.53;;;21.90;75.20;;;;;;5065502;28;20544;-73
2022/05/25 08:18:14;;;;;;;4.68;3.40;;;21.30;75.80;;;;;;5067669;28;20044;-73
2022/05/25 08:20:41;;;;;;;5.82;3.53;;;21.20;76.30;;;;;;5067523;28;20108;-74
2022/05/25 08:23:08;;;;;;;4.82;3.97;;;20.80;78.60;;;;;;5048825;28;20045;-73
2022/05/25 08:25:35;;;;;;;3.67;3.35;;;20.50;80.40;;;;;;5068274;28;20049;-74
2022/05/25 08:28:02;;;;;;;4.28;3.08;;;20.50;82.00;;;;;;5049229;28;20166;-73
2022/05/25 08:30:28;;;;;;;5.38;3.60;;;20.50;82.40;;;;;;5068118;28;20037;-74
2022/05/25 08:32:54;;;;;;;4.47;2.83;;;20.40;84.10;;;;;;5067660;28;20748;-73
2022/05/25 08:35:20;;;;;;;4.75;3.55;;;20.50;82.20;;;;;;5086277;28;20058;-72
2022/05/25 08:37:46;;;;;;;3.58;2.85;;;20.20;81.60;;;;;;5069236;28;20042;-74
2022/05/25 08:40:17;;;;;;;3.20;2.40;;;20.30;83.90;;;;;;5069129;28;20070;-73
2022/05/25 08:42:58;;;;;;;2.33;2.10;;;20.40;82.30;;;;;;5067600;28;20064;-74
2022/05/25 08:45:30;;;;;;;4.28;2.38;;;20.30;81.20;;;;;;5050745;28;20119;-74
2022/05/25 08:47:58;;;;;;;3.00;2.28;;;20.20;80.00;;;;;;5051662;28;20041;-74
2022/05/25 08:50:24;;;;;;;3.13;2.28;;;20.40;81.50;;;;;;5067345;28;20052;-74
2022/05/25 08:52:54;;;;;;;3.78;2.47;;;20.40;83.40;;;;;;5046636;28;20036;-72
2022/05/25 08:55:51;;;;;;;2.70;2.47;;;20.70;82.60;;;;;;5063470;28;20504;-72
2022/05/25 08:58:18;;;;;;;4.13;2.72;;;20.90;82.00;;;;;;5052214;28;20378;-74
2022/05/25 09:00:46;;;;;;;3.53;2.55;;;21.00;80.50;;;;;;5068829;28;20156;-73
2022/05/25 09:03:36;;;;;;;4.20;2.90;;;21.20;80.40;;;;;;5068863;28;20818;-73
2022/05/25 09:06:14;;;;;;;3.65;2.70;;;21.20;81.20;;;;;;5069667;28;20080;-73
2022/05/25 09:08:59;;;;;;;6.05;2.90;;;21.20;81.40;;;;;;5050063;28;20080;-74
2022/05/25 09:11:43;;;;;;;3.80;2.38;;;21.20;82.00;;;;;;5048162;28;20048;-74
2022/05/25 09:14:22;;;;;;;4.93;3.30;;;21.00;80.20;;;;;;5067979;28;20040;-75
2022/05/25 09:16:51;;;;;;;3.58;2.90;;;20.80;81.00;;;;;;5051896;28;20041;-74
2022/05/25 09:19:25;;;;;;;2.78;2.50;;;20.60;82.60;;;;;;5051828;28;20509;-73
2022/05/25 09:21:53;;;;;;;3.33;2.22;;;20.50;81.90;;;;;;5063165;28;20110;-74
2022/05/25 09:24:22;;;;;;;5.00;2.38;;;20.60;82.80;;;;;;5057184;28;20041;-74
2022/05/25 09:26:48;;;;;;;3.63;2.30;;;20.50;82.10;;;;;;5067486;28;20043;-73
2022/05/25 09:29:13;;;;;;;3.20;2.30;;;20.20;81.40;;;;;;5065711;28;20036;-74
2022/05/25 09:31:44;;;;;;;2.35;2.08;;;20.50;83.00;;;;;;5057420;28;20355;-75
2022/05/25 09:34:16;;;;;;;3.45;2.10;;;20.50;81.70;;;;;;5059834;28;20032;-73
2022/05/25 09:36:53;;;;;;;3.70;2.28;;;20.70;83.60;;;;;;5055648;28;20076;-72
2022/05/25 09:39:32;;;;;;;2.15;1.95;;;20.70;80.00;;;;;;5079016;28;20420;-74
2022/05/25 09:42:00;;;;;;;2.63;1.98;;;20.80;80.60;;;;;;5072989;28;20036;-74
2022/05/25 09:44:28;;;;;;;4.55;2.28;;;20.90;81.00;;;;;;5053107;28;20132;-74
2022/05/25 09:46:58;;;;;;;3.22;1.90;;;20.90;80.00;;;;;;5090746;28;20072;-74
2022/05/25 09:49:39;;;;;;;3.17;2.22;;;20.90;81.20;;;;;;5073809;28;20040;-73
2022/05/25 09:52:38;;;;;;;2.08;1.80;;;21.00;80.70;;;;;;5068964;28;20094;-73
2022/05/25 09:55:14;;;;;;;2.20;1.95;;;20.80;79.50;;;;;;5074051;28;20087;-73
2022/05/25 09:57:52;;;;;;;3.83;1.98;;;20.50;80.10;;;;;;5060620;28;20070;-72
2022/05/25 10:00:58;;;;;;;2.20;1.85;;;20.50;82.50;;;;;;5070164;28;20123;-72
2022/05/25 10:03:26;;;;;;;3.63;2.17;;;20.70;81.60;;;;;;5035799;28;20092;-73
2022/05/25 10:06:00;;;;;;;2.22;2.03;;;20.90;81.80;;;;;;5053524;28;20401;-73
2022/05/25 10:08:30;;;;;;;2.95;2.72;;;21.10;82.30;;;;;;5066419;28;20093;-73
2022/05/25 10:11:00;;;;;;;2.85;2.15;;;21.40;79.60;;;;;;5045491;28;20402;-73
2022/05/25 10:13:40;;;;;;;2.70;2.40;;;21.40;79.70;;;;;;5066001;28;20532;-72
2022/05/25 10:16:26;;;;;;;3.03;2.20;;;21.40;78.90;;;;;;5070147;28;20051;-72
2022/05/25 10:18:51;;;;;;;3.42;2.22;;;21.20;79.20;;;;;;5086631;28;20074;-72
2022/05/25 10:21:29;;;;;;;3.72;2.17;;;21.20;80.30;;;;;;5070459;28;20657;-72
2022/05/25 10:23:57;;;;;;;4.95;2.05;;;21.20;79.80;;;;;;5053901;28;20044;-72
2022/05/25 10:26:38;;;;;;;3.28;2.30;;;21.20;78.40;;;;;;5053352;28;20044;-72
2022/05/25 10:29:14;;;;;;;3.72;2.47;;;20.90;79.40;;;;;;5068707;28;20040;-72
2022/05/25 10:37:36;;;;;;;3.92;2.38;;;20.60;80.70;;;;;;5067043;28;20055;-72
2022/05/25 10:40:06;;;;;;;3.38;2.40;;;20.90;82.60;;;;;;5069230;28;20116;-72
2022/05/25 10:42:39;;;;;;;2.58;2.30;;;21.00;78.90;;;;;;5054695;28;20068;-71
2022/05/25 10:45:22;;;;;;;2.95;2.25;;;20.90;81.10;;;;;;5054674;28;20046;-72
2022/05/25 10:48:00;;;;;;;3.25;2.30;;;20.90;81.90;;;;;;5071396;28;20043;-71
2022/05/25 10:50:35;;;;;;;3.67;2.10;;;20.90;80.90;;;;;;5070553;28;20497;-72
2022/05/25 10:53:24;;;;;;;2.88;1.90;;;20.80;80.00;;;;;;5069904;28;20043;-72
2022/05/25 10:55:58;;;;;;;3.08;2.10;;;20.80;81.30;;;;;;5071748;28;20075;-72
2022/05/25 10:58:44;;;;;;;3.08;2.15;;;20.70;82.30;;;;;;5061957;28;20072;-71
2022/05/25 11:01:34;;;;;;;4.90;1.98;;;20.60;82.20;;;;;;5060424;28;20033;-72
2022/05/25 11:04:08;;;;;;;3.15;1.95;;;20.70;85.80;;;;;;5071302;28;20041;-71
2022/05/25 11:06:52;;;;;;;3.58;2.20;;;20.80;84.90;;;;;;5072167;28;20045;-72
2022/05/25 11:09:23;;;;;;;4.25;2.13;;;20.80;82.80;;;;;;5056479;28;20445;-72
2022/05/25 11:12:14;;;;;;;2.95;2.17;;;20.70;81.30;;;;;;5068431;28;20158;-72
2022/05/25 11:15:01;;;;;;;4.07;2.70;;;20.70;78.50;;;;;;5073808;28;20045;-72
2022/05/25 11:17:39;;;;;;;4.03;2.78;;;20.50;79.70;;;;;;5066147;28;20116;-71
2022/05/25 11:20:20;;;;;;;2.80;2.42;;;20.70;79.80;;;;;;5068277;28;20044;-71
2022/05/25 11:23:09;;;;;;;5.03;2.30;;;20.80;80.80;;;;;;5083011;28;20506;-71
2022/05/25 11:25:57;;;;;;;2.58;1.90;;;20.80;79.70;;;;;;5064569;28;20100;-71
2022/05/25 11:28:57;;;;;;;2.92;1.88;;;21.00;81.00;;;;;;5070217;28;20482;-72
2022/05/25 11:31:40;;;;;;;5.30;2.45;;;20.90;76.20;;;;;;5066072;28;20063;-71
2022/05/25 11:34:31;;;;;;;5.85;2.20;;;20.80;76.10;;;;;;5068261;28;20067;-71
2022/05/25 11:37:03;;;;;;;4.97;3.03;;;21.00;77.70;;;;;;5053545;28;20048;-72
2022/05/25 11:40:06;;;;;;;4.50;3.13;;;21.10;79.60;;;;;;5066020;28;20689;-72
2022/05/25 11:42:54;;;;;;;4.13;2.85;;;21.10;78.40;;;;;;5084870;28;20040;-72
2022/05/25 11:45:42;;;;;;;6.70;3.20;;;21.00;76.20;;;;;;5059019;28;20040;-72
2022/05/25 11:48:38;;;;;;;4.43;3.20;;;21.00;79.20;;;;;;5059757;28;20040;-72
2022/05/25 11:51:28;;;;;;;4.07;3.50;;;20.40;77.70;;;;;;5066226;28;20067;-71
2022/05/25 11:54:29;;;;;;;3.83;3.33;;;20.30;81.60;;;;;;5080568;28;20091;-71
2022/05/25 11:57:31;;;;;;;3.55;3.25;;;20.00;82.30;;;;;;5062319;28;20494;-71
2022/05/25 12:00:27;;;;;;;5.90;4.30;;;19.80;83.10;;;;;;5083655;28;20040;-70
2022/05/25 12:03:18;;;;;;;6.25;4.13;;;19.50;90.20;;;;;;5064061;28;20623;-70
2022/05/25 12:06:06;;;;;;;6.15;3.92;;;18.80;91.70;;;;;;5067696;28;20049;-71
2022/05/25 12:08:46;;;;;;;3.97;3.10;;;18.10;94.60;;;;;;5063980;28;20109;-71
2022/05/25 12:11:27;;;;;;;3.88;3.10;;;17.80;96.70;;;;;;5068438;28;20466;-72
2022/05/25 12:14:22;;;;;;;5.93;3.60;;;17.30;99.60;;;;;;5065085;28;20045;-70
2022/05/25 12:16:50;;;;;;;5.72;3.92;;;17.20;99.90;;;;;;5069744;28;20047;-71
2022/05/25 12:19:21;;;;;;;4.45;4.03;;;17.20;99.90;;;;;;5086485;28;20048;-71
2022/05/25 12:22:07;;;;;;;4.70;4.20;;;17.20;99.90;;;;;;5068222;28;20052;-71
2022/05/25 12:24:41;;;;;;;4.18;3.70;;;17.40;99.90;;;;;;5075483;22;20044;-71
2022/05/25 12:27:15;;;;;;;4.40;3.63;;;17.70;99.90;;;;;;5052739;28;20044;-71
2022/05/25 12:29:46;;;;;;;2.90;2.60;;;18.10;99.90;;;;;;5064236;28;20389;-71
2022/05/25 12:32:13;;;;;;;3.67;3.00;;;18.20;99.90;;;;;;5065656;28;20128;-70
2022/05/25 12:34:40;;;;;;;3.78;3.22;;;18.50;99.90;;;;;;5064648;28;20458;-71
2022/05/25 12:37:09;;;;;;;4.10;3.33;;;18.60;99.90;;;;;;5068961;28;20393;-70
2022/05/25 12:39:47;;;;;;;4.20;3.15;;;18.80;99.50;;;;;;5066952;28;20046;-71
2022/05/25 12:42:25;;;;;;;4.53;3.08;;;19.00;98.90;;;;;;5060903;28;20044;-70
2022/05/25 12:51:08;;;;;;;3.25;2.90;;;19.40;96.60;;;;;;5065407;28;20045;-71
2022/05/25 12:53:54;;;;;;;5.15;2.47;;;19.50;96.90;;;;;;5064131;28;20390;-71
2022/05/25 12:56:26;;;;;;;5.28;2.97;;;19.60;96.10;;;;;;5063940;28;20043;-70
2022/05/25 12:58:57;;;;;;;4.38;2.40;;;19.70;97.20;;;;;;5067830;28;20040;-70
2022/05/25 13:01:31;;;;;;;7.15;2.40;;;19.90;95.80;;;;;;5068202;28;20045;-71
2022/05/25 13:03:57;;;;;;;5.72;2.10;;;19.90;95.20;;;;;;5049791;28;20044;-72
2022/05/25 13:06:28;;;;;;;3.35;1.67;;;19.90;95.40;;;;;;5051882;28;20047;-71
2022/05/25 13:08:55;;;;;;;4.00;1.45;;;19.90;94.50;;;;;;5068279;28;20037;-71
2022/05/25 13:11:45;;;;;;;6.20;1.35;;;19.90;94.50;;;;;;5071593;28;20122;-71
2022/05/25 13:14:17;;;;;;;4.55;1.30;;;20.00;94.80;;;;;;5056374;28;20045;-71
2022/05/25 13:16:45;;;;;;;5.75;1.00;;;20.00;94.40;;;;;;5065199;28;20747;-71
2022/05/25 13:19:28;;;;;;;2.33;1.02;;;20.00;94.10;;;;;;5065709;28;20098;-71
2022/05/25 13:22:03;;;;;;;4.05;0.98;;;20.00;93.50;;;;;;5065333;28;20584;-71
2022/05/25 13:24:34;;;;;;;2.10;0.80;;;19.90;92.50;;;;;;5051467;28;20057;-71
2022/05/25 13:27:21;;;;;;;3.05;0.98;;;20.00;92.50;;;;;;5049792;28;20580;-71
2022/05/25 13:30:17;;;;;;;3.10;1.33;;;20.20;91.80;;;;;;5066859;28;20056;-72
2022/05/25 13:33:02;;;;;;;4.38;0.95;;;20.00;91.70;;;;;;5066234;28;20025;-71